sensor_id;sensor_type;location;lat;lon;timestamp;P1;durP1;ratioP1;P2;durP2;ratioP2
40635;SDS011;26642;55.766;37.828;2023-06-04T00:02:18;5.65;;;2.13;;
40635;SDS011;26642;55.766;37.828;2023-06-04T00:04:44;4.93;;;2.05;;
40635;SDS011;26642;55.766;37.828;2023-06-04T00:07:10;2.33;;;1.80;;
40635;SDS011;26642;55.766;37.828;2023-06-04T00:09:36;2.20;;;1.65;;
40635;SDS011;26642;55.766;37.828;2023-06-04T00:12:02;2.38;;;2.00;;
40635;SDS011;26642;55.766;37.828;2023-06-04T00:14:28;3.85;;;1.90;;
40635;SDS011;26642;55.766;37.828;2023-06-04T00:16:53;2.53;;;1.88;;
40635;SDS011;26642;55.766;37.828;2023-06-04T00:19:19;3.78;;;2.03;;
40635;SDS011;26642;55.766;37.828;2023-06-04T00:21:45;1.88;;;1.65;;
40635;SDS011;26642;55.766;37.828;2023-06-04T00:24:11;2.55;;;1.80;;
40635;SDS011;26642;55.766;37.828;2023-06-04T00:26:37;2.83;;;1.50;;
40635;SDS011;26642;55.766;37.828;2023-06-04T00:29:03;4.88;;;1.88;;
40635;SDS011;26642;55.766;37.828;2023-06-04T00:31:29;1.88;;;1.70;;
40635;SDS011;26642;55.766;37.828;2023-06-04T00:33:55;2.50;;;1.30;;
40635;SDS011;26642;55.766;37.828;2023-06-04T00:36:21;4.53;;;1.83;;
40635;SDS011;26642;55.766;37.828;2023-06-04T00:38:47;2.97;;;1.90;;
40635;SDS011;26642;55.766;37.828;2023-06-04T00:41:13;2.80;;;1.40;;
40635;SDS011;26642;55.766;37.828;2023-06-04T00:43:39;3.40;;;1.90;;
40635;SDS011;26642;55.766;37.828;2023-06-04T00:46:05;2.03;;;1.52;;
40635;SDS011;26642;55.766;37.828;2023-06-04T00:48:31;5.93;;;1.60;;
40635;SDS011;26642;55.766;37.828;2023-06-04T00:50:58;2.20;;;1.48;;
40635;SDS011;26642;55.766;37.828;2023-06-04T00:53:25;2.60;;;1.90;;
40635;SDS011;26642;55.766;37.828;2023-06-04T00:55:51;2.58;;;1.42;;
40635;SDS011;26642;55.766;37.828;2023-06-04T00:58:17;4.45;;;1.80;;
40635;SDS011;26642;55.766;37.828;2023-06-04T01:00:44;3.55;;;1.77;;
40635;SDS011;26642;55.766;37.828;2023-06-04T01:03:11;3.30;;;1.70;;
40635;SDS011;26642;55.766;37.828;2023-06-04T01:05:51;3.53;;;1.48;;
40635;SDS011;26642;55.766;37.828;2023-06-04T01:08:34;2.58;;;1.58;;
40635;SDS011;26642;55.766;37.828;2023-06-04T01:11:01;3.55;;;1.50;;
40635;SDS011;26642;55.766;37.828;2023-06-04T01:13:27;2.40;;;1.55;;
40635;SDS011;26642;55.766;37.828;2023-06-04T01:15:53;3.28;;;1.40;;
40635;SDS011;26642;55.766;37.828;2023-06-04T01:18:20;1.70;;;1.35;;
40635;SDS011;26642;55.766;37.828;2023-06-04T01:23:46;5.05;;;1.70;;
40635;SDS011;26642;55.766;37.828;2023-06-04T01:26:29;1.65;;;1.55;;
40635;SDS011;26642;55.766;37.828;2023-06-04T01:28:57;1.80;;;1.70;;
40635;SDS011;26642;55.766;37.828;2023-06-04T01:31:24;2.40;;;1.40;;
40635;SDS011;26642;55.766;37.828;2023-06-04T01:33:57;2.83;;;1.27;;
40635;SDS011;26642;55.766;37.828;2023-06-04T01:36:23;3.22;;;1.38;;
40635;SDS011;26642;55.766;37.828;2023-06-04T01:38:50;2.35;;;1.35;;
40635;SDS011;26642;55.766;37.828;2023-06-04T01:41:16;1.45;;;1.25;;
40635;SDS011;26642;55.766;37.828;2023-06-04T01:43:43;1.60;;;1.33;;
40635;SDS011;26642;55.766;37.828;2023-06-04T01:46:09;1.48;;;1.00;;
40635;SDS011;26642;55.766;37.828;2023-06-04T01:48:35;2.45;;;1.38;;
40635;SDS011;26642;55.766;37.828;2023-06-04T01:51:02;1.20;;;1.10;;
40635;SDS011;26642;55.766;37.828;2023-06-04T01:53:29;3.38;;;1.40;;
40635;SDS011;26642;55.766;37.828;2023-06-04T01:55:56;2.03;;;1.48;;
40635;SDS011;26642;55.766;37.828;2023-06-04T01:58:22;3.95;;;1.27;;
40635;SDS011;26642;55.766;37.828;2023-06-04T02:00:52;4.38;;;1.65;;
40635;SDS011;26642;55.766;37.828;2023-06-04T02:03:20;1.52;;;1.42;;
40635;SDS011;26642;55.766;37.828;2023-06-04T02:05:47;2.25;;;1.25;;
40635;SDS011;26642;55.766;37.828;2023-06-04T02:08:14;1.88;;;1.10;;
40635;SDS011;26642;55.766;37.828;2023-06-04T02:10:47;1.95;;;1.10;;
40635;SDS011;26642;55.766;37.828;2023-06-04T02:13:13;1.75;;;1.20;;
40635;SDS011;26642;55.766;37.828;2023-06-04T02:15:40;1.30;;;1.10;;
40635;SDS011;26642;55.766;37.828;2023-06-04T02:18:14;1.25;;;1.13;;
40635;SDS011;26642;55.766;37.828;2023-06-04T02:20:43;3.63;;;1.10;;
40635;SDS011;26642;55.766;37.828;2023-06-04T02:23:10;1.75;;;1.20;;
40635;SDS011;26642;55.766;37.828;2023-06-04T02:25:37;2.40;;;1.33;;
40635;SDS011;26642;55.766;37.828;2023-06-04T02:28:03;1.52;;;1.00;;
40635;SDS011;26642;55.766;37.828;2023-06-04T02:30:29;2.30;;;1.02;;
40635;SDS011;26642;55.766;37.828;2023-06-04T02:32:55;1.25;;;1.15;;
40635;SDS011;26642;55.766;37.828;2023-06-04T02:35:21;1.08;;;0.85;;
40635;SDS011;26642;55.766;37.828;2023-06-04T02:37:52;1.05;;;0.90;;
40635;SDS011;26642;55.766;37.828;2023-06-04T02:40:18;1.45;;;1.10;;
40635;SDS011;26642;55.766;37.828;2023-06-04T02:42:44;2.05;;;0.98;;
40635;SDS011;26642;55.766;37.828;2023-06-04T02:45:10;2.10;;;1.40;;
40635;SDS011;26642;55.766;37.828;2023-06-04T02:47:36;1.50;;;1.20;;
40635;SDS011;26642;55.766;37.828;2023-06-04T02:50:03;2.00;;;1.13;;
40635;SDS011;26642;55.766;37.828;2023-06-04T02:52:29;1.92;;;0.77;;
40635;SDS011;26642;55.766;37.828;2023-06-04T02:54:56;1.13;;;1.00;;
40635;SDS011;26642;55.766;37.828;2023-06-04T02:57:22;5.63;;;1.20;;
40635;SDS011;26642;55.766;37.828;2023-06-04T02:59:48;2.13;;;0.88;;
40635;SDS011;26642;55.766;37.828;2023-06-04T03:02:14;2.67;;;1.10;;
40635;SDS011;26642;55.766;37.828;2023-06-04T03:04:40;1.83;;;0.98;;
40635;SDS011;26642;55.766;37.828;2023-06-04T03:07:08;1.40;;;1.02;;
40635;SDS011;26642;55.766;37.828;2023-06-04T03:09:36;1.30;;;1.20;;
40635;SDS011;26642;55.766;37.828;2023-06-04T03:12:03;1.55;;;0.80;;
40635;SDS011;26642;55.766;37.828;2023-06-04T03:14:30;1.17;;;1.05;;
40635;SDS011;26642;55.766;37.828;2023-06-04T03:17:01;2.05;;;0.90;;
40635;SDS011;26642;55.766;37.828;2023-06-04T03:19:34;1.38;;;0.95;;
40635;SDS011;26642;55.766;37.828;2023-06-04T03:22:01;0.80;;;0.80;;
40635;SDS011;26642;55.766;37.828;2023-06-04T03:24:35;2.83;;;1.00;;
40635;SDS011;26642;55.766;37.828;2023-06-04T03:27:02;1.00;;;0.90;;
40635;SDS011;26642;55.766;37.828;2023-06-04T03:29:30;1.90;;;1.00;;
40635;SDS011;26642;55.766;37.828;2023-06-04T03:31:58;1.80;;;0.80;;
40635;SDS011;26642;55.766;37.828;2023-06-04T03:34:26;1.90;;;1.00;;
40635;SDS011;26642;55.766;37.828;2023-06-04T03:36:53;1.42;;;0.93;;
40635;SDS011;26642;55.766;37.828;2023-06-04T03:39:19;0.73;;;0.60;;
40635;SDS011;26642;55.766;37.828;2023-06-04T03:41:47;1.70;;;0.98;;
40635;SDS011;26642;55.766;37.828;2023-06-04T03:44:14;2.28;;;0.80;;
40635;SDS011;26642;55.766;37.828;2023-06-04T03:46:41;1.58;;;0.80;;
40635;SDS011;26642;55.766;37.828;2023-06-04T03:49:11;1.65;;;0.70;;
40635;SDS011;26642;55.766;37.828;2023-06-04T03:51:38;2.58;;;1.10;;
40635;SDS011;26642;55.766;37.828;2023-06-04T03:54:05;0.85;;;0.70;;
40635;SDS011;26642;55.766;37.828;2023-06-04T03:56:32;0.95;;;0.75;;
40635;SDS011;26642;55.766;37.828;2023-06-04T03:58:58;3.70;;;0.85;;
40635;SDS011;26642;55.766;37.828;2023-06-04T04:01:26;0.95;;;0.85;;
40635;SDS011;26642;55.766;37.828;2023-06-04T04:03:55;2.72;;;1.00;;
40635;SDS011;26642;55.766;37.828;2023-06-04T04:06:21;1.33;;;0.73;;
40635;SDS011;26642;55.766;37.828;2023-06-04T04:08:48;0.70;;;0.57;;
40635;SDS011;26642;55.766;37.828;2023-06-04T04:11:17;1.05;;;0.60;;
40635;SDS011;26642;55.766;37.828;2023-06-04T04:13:44;0.93;;;0.73;;
40635;SDS011;26642;55.766;37.828;2023-06-04T04:16:11;1.15;;;0.70;;
40635;SDS011;26642;55.766;37.828;2023-06-04T04:18:41;1.23;;;0.70;;
40635;SDS011;26642;55.766;37.828;2023-06-04T04:21:11;0.68;;;0.68;;
40635;SDS011;26642;55.766;37.828;2023-06-04T04:23:39;1.35;;;0.50;;
40635;SDS011;26642;55.766;37.828;2023-06-04T04:26:09;1.25;;;0.77;;
40635;SDS011;26642;55.766;37.828;2023-06-04T04:28:43;0.60;;;0.47;;
40635;SDS011;26642;55.766;37.828;2023-06-04T04:31:09;0.43;;;0.43;;
40635;SDS011;26642;55.766;37.828;2023-06-04T04:33:36;0.55;;;0.50;;
40635;SDS011;26642;55.766;37.828;2023-06-04T04:36:07;1.13;;;0.60;;
40635;SDS011;26642;55.766;37.828;2023-06-04T04:38:38;1.70;;;0.95;;
40635;SDS011;26642;55.766;37.828;2023-06-04T04:41:05;0.55;;;0.50;;
40635;SDS011;26642;55.766;37.828;2023-06-04T04:43:34;0.90;;;0.57;;
40635;SDS011;26642;55.766;37.828;2023-06-04T04:46:09;1.30;;;0.60;;
40635;SDS011;26642;55.766;37.828;2023-06-04T04:48:36;0.50;;;0.50;;
40635;SDS011;26642;55.766;37.828;2023-06-04T04:51:03;1.00;;;0.60;;
40635;SDS011;26642;55.766;37.828;2023-06-04T04:53:30;1.17;;;0.50;;
40635;SDS011;26642;55.766;37.828;2023-06-04T04:55:57;1.17;;;0.50;;
40635;SDS011;26642;55.766;37.828;2023-06-04T04:58:23;1.00;;;0.55;;
40635;SDS011;26642;55.766;37.828;2023-06-04T05:00:49;0.55;;;0.50;;
40635;SDS011;26642;55.766;37.828;2023-06-04T05:03:15;0.50;;;0.45;;
40635;SDS011;26642;55.766;37.828;2023-06-04T05:05:42;1.52;;;0.70;;
40635;SDS011;26642;55.766;37.828;2023-06-04T05:08:10;0.68;;;0.55;;
40635;SDS011;26642;55.766;37.828;2023-06-04T05:10:39;0.82;;;0.40;;
40635;SDS011;26642;55.766;37.828;2023-06-04T05:13:07;1.38;;;0.60;;
40635;SDS011;26642;55.766;37.828;2023-06-04T05:15:48;3.72;;;0.50;;
40635;SDS011;26642;55.766;37.828;2023-06-04T05:18:18;0.70;;;0.55;;
40635;SDS011;26642;55.766;37.828;2023-06-04T05:20:56;0.40;;;0.40;;
40635;SDS011;26642;55.766;37.828;2023-06-04T05:23:26;0.55;;;0.55;;
40635;SDS011;26642;55.766;37.828;2023-06-04T05:25:52;2.45;;;0.50;;
40635;SDS011;26642;55.766;37.828;2023-06-04T05:28:19;3.75;;;0.60;;
40635;SDS011;26642;55.766;37.828;2023-06-04T05:30:46;0.47;;;0.47;;
40635;SDS011;26642;55.766;37.828;2023-06-04T05:33:14;1.00;;;0.60;;
40635;SDS011;26642;55.766;37.828;2023-06-04T05:35:47;0.98;;;0.50;;
40635;SDS011;26642;55.766;37.828;2023-06-04T05:38:14;1.02;;;0.60;;
40635;SDS011;26642;55.766;37.828;2023-06-04T05:40:44;1.05;;;0.60;;
40635;SDS011;26642;55.766;37.828;2023-06-04T05:43:12;1.05;;;0.60;;
40635;SDS011;26642;55.766;37.828;2023-06-04T05:45:38;0.80;;;0.60;;
40635;SDS011;26642;55.766;37.828;2023-06-04T05:48:04;2.10;;;0.60;;
40635;SDS011;26642;55.766;37.828;2023-06-04T05:50:31;1.48;;;0.60;;
40635;SDS011;26642;55.766;37.828;2023-06-04T05:52:57;0.73;;;0.50;;
40635;SDS011;26642;55.766;37.828;2023-06-04T05:55:24;0.95;;;0.60;;
40635;SDS011;26642;55.766;37.828;2023-06-04T05:57:50;2.20;;;0.70;;
40635;SDS011;26642;55.766;37.828;2023-06-04T06:00:17;1.60;;;0.60;;
40635;SDS011;26642;55.766;37.828;2023-06-04T06:02:46;0.52;;;0.52;;
40635;SDS011;26642;55.766;37.828;2023-06-04T06:05:26;1.27;;;0.60;;
40635;SDS011;26642;55.766;37.828;2023-06-04T06:07:53;1.90;;;0.60;;
40635;SDS011;26642;55.766;37.828;2023-06-04T06:10:21;1.60;;;0.60;;
40635;SDS011;26642;55.766;37.828;2023-06-04T06:12:47;0.55;;;0.40;;
40635;SDS011;26642;55.766;37.828;2023-06-04T06:15:13;1.10;;;0.60;;
40635;SDS011;26642;55.766;37.828;2023-06-04T06:17:42;1.60;;;0.80;;
40635;SDS011;26642;55.766;37.828;2023-06-04T06:20:08;1.48;;;0.60;;
40635;SDS011;26642;55.766;37.828;2023-06-04T06:22:35;0.38;;;0.35;;
40635;SDS011;26642;55.766;37.828;2023-06-04T06:25:02;0.70;;;0.52;;
40635;SDS011;26642;55.766;37.828;2023-06-04T06:27:32;0.68;;;0.50;;
40635;SDS011;26642;55.766;37.828;2023-06-04T06:29:59;0.82;;;0.50;;
40635;SDS011;26642;55.766;37.828;2023-06-04T06:32:25;1.45;;;0.60;;
40635;SDS011;26642;55.766;37.828;2023-06-04T06:34:52;1.60;;;0.50;;
40635;SDS011;26642;55.766;37.828;2023-06-04T06:37:18;0.80;;;0.52;;
40635;SDS011;26642;55.766;37.828;2023-06-04T06:39:44;0.90;;;0.50;;
40635;SDS011;26642;55.766;37.828;2023-06-04T06:42:10;0.63;;;0.40;;
40635;SDS011;26642;55.766;37.828;2023-06-04T06:44:40;0.40;;;0.40;;
40635;SDS011;26642;55.766;37.828;2023-06-04T06:47:06;2.85;;;0.55;;
40635;SDS011;26642;55.766;37.828;2023-06-04T06:49:32;2.15;;;0.50;;
40635;SDS011;26642;55.766;37.828;2023-06-04T06:51:58;1.02;;;0.50;;
40635;SDS011;26642;55.766;37.828;2023-06-04T06:54:24;0.77;;;0.40;;
40635;SDS011;26642;55.766;37.828;2023-06-04T06:56:50;2.38;;;0.60;;
40635;SDS011;26642;55.766;37.828;2023-06-04T06:59:16;0.73;;;0.47;;
40635;SDS011;26642;55.766;37.828;2023-06-04T07:01:42;0.57;;;0.57;;
40635;SDS011;26642;55.766;37.828;2023-06-04T07:04:08;0.70;;;0.70;;
40635;SDS011;26642;55.766;37.828;2023-06-04T07:06:34;0.30;;;0.30;;
40635;SDS011;26642;55.766;37.828;2023-06-04T07:09:01;0.85;;;0.60;;
40635;SDS011;26642;55.766;37.828;2023-06-04T07:11:28;1.35;;;0.68;;
40635;SDS011;26642;55.766;37.828;2023-06-04T07:13:55;1.98;;;0.50;;
40635;SDS011;26642;55.766;37.828;2023-06-04T07:16:21;0.50;;;0.43;;
40635;SDS011;26642;55.766;37.828;2023-06-04T07:18:47;0.32;;;0.30;;
40635;SDS011;26642;55.766;37.828;2023-06-04T07:21:16;1.38;;;0.50;;
40635;SDS011;26642;55.766;37.828;2023-06-04T07:23:44;0.47;;;0.40;;
40635;SDS011;26642;55.766;37.828;2023-06-04T07:26:14;0.40;;;0.40;;
40635;SDS011;26642;55.766;37.828;2023-06-04T07:28:41;2.60;;;0.60;;
40635;SDS011;26642;55.766;37.828;2023-06-04T07:31:07;0.65;;;0.60;;
40635;SDS011;26642;55.766;37.828;2023-06-04T07:33:33;0.98;;;0.50;;
40635;SDS011;26642;55.766;37.828;2023-06-04T07:35:59;1.50;;;0.60;;
40635;SDS011;26642;55.766;37.828;2023-06-04T07:38:25;0.47;;;0.40;;
40635;SDS011;26642;55.766;37.828;2023-06-04T07:40:52;1.63;;;0.40;;
40635;SDS011;26642;55.766;37.828;2023-06-04T07:43:17;0.50;;;0.50;;
40635;SDS011;26642;55.766;37.828;2023-06-04T07:45:43;1.95;;;0.30;;
40635;SDS011;26642;55.766;37.828;2023-06-04T07:48:09;0.73;;;0.40;;
40635;SDS011;26642;55.766;37.828;2023-06-04T07:50:36;0.88;;;0.50;;
40635;SDS011;26642;55.766;37.828;2023-06-04T07:53:02;0.50;;;0.28;;
40635;SDS011;26642;55.766;37.828;2023-06-04T07:55:29;1.55;;;0.40;;
40635;SDS011;26642;55.766;37.828;2023-06-04T07:57:54;1.65;;;0.30;;
40635;SDS011;26642;55.766;37.828;2023-06-04T08:00:21;1.42;;;0.50;;
40635;SDS011;26642;55.766;37.828;2023-06-04T08:02:47;2.08;;;0.47;;
40635;SDS011;26642;55.766;37.828;2023-06-04T08:05:13;0.40;;;0.30;;
40635;SDS011;26642;55.766;37.828;2023-06-04T08:07:40;2.53;;;0.43;;
40635;SDS011;26642;55.766;37.828;2023-06-04T08:10:06;0.35;;;0.35;;
40635;SDS011;26642;55.766;37.828;2023-06-04T08:12:33;0.32;;;0.32;;
40635;SDS011;26642;55.766;37.828;2023-06-04T08:14:59;2.40;;;0.50;;
40635;SDS011;26642;55.766;37.828;2023-06-04T08:17:25;1.75;;;0.60;;
40635;SDS011;26642;55.766;37.828;2023-06-04T08:19:56;6.22;;;0.80;;
40635;SDS011;26642;55.766;37.828;2023-06-04T08:22:36;0.95;;;0.63;;
40635;SDS011;26642;55.766;37.828;2023-06-04T08:25:03;3.30;;;0.60;;
40635;SDS011;26642;55.766;37.828;2023-06-04T08:27:49;0.75;;;0.60;;
40635;SDS011;26642;55.766;37.828;2023-06-04T08:30:36;1.13;;;0.70;;
40635;SDS011;26642;55.766;37.828;2023-06-04T08:33:06;1.35;;;0.65;;
40635;SDS011;26642;55.766;37.828;2023-06-04T08:35:42;1.13;;;0.60;;
40635;SDS011;26642;55.766;37.828;2023-06-04T08:38:08;1.10;;;0.75;;
40635;SDS011;26642;55.766;37.828;2023-06-04T08:40:34;3.13;;;0.50;;
40635;SDS011;26642;55.766;37.828;2023-06-04T08:43:01;1.67;;;0.50;;
40635;SDS011;26642;55.766;37.828;2023-06-04T08:45:27;0.80;;;0.75;;
40635;SDS011;26642;55.766;37.828;2023-06-04T08:47:53;2.00;;;0.75;;
40635;SDS011;26642;55.766;37.828;2023-06-04T08:50:21;4.30;;;0.60;;
40635;SDS011;26642;55.766;37.828;2023-06-04T08:52:54;5.57;;;0.93;;
40635;SDS011;26642;55.766;37.828;2023-06-04T08:55:21;2.70;;;0.50;;
40635;SDS011;26642;55.766;37.828;2023-06-04T08:57:50;11.88;;;0.85;;
40635;SDS011;26642;55.766;37.828;2023-06-04T09:00:17;4.60;;;0.60;;
40635;SDS011;26642;55.766;37.828;2023-06-04T09:02:44;0.68;;;0.68;;
40635;SDS011;26642;55.766;37.828;2023-06-04T09:05:10;1.75;;;0.68;;
40635;SDS011;26642;55.766;37.828;2023-06-04T09:07:44;4.45;;;0.80;;
40635;SDS011;26642;55.766;37.828;2023-06-04T09:10:12;1.90;;;0.63;;
40635;SDS011;26642;55.766;37.828;2023-06-04T09:12:43;1.23;;;0.80;;
40635;SDS011;26642;55.766;37.828;2023-06-04T09:15:12;0.40;;;0.40;;
40635;SDS011;26642;55.766;37.828;2023-06-04T09:17:38;1.58;;;0.60;;
40635;SDS011;26642;55.766;37.828;2023-06-04T09:20:04;4.28;;;1.00;;
40635;SDS011;26642;55.766;37.828;2023-06-04T09:22:34;7.15;;;1.17;;
40635;SDS011;26642;55.766;37.828;2023-06-04T09:25:03;2.55;;;0.73;;
40635;SDS011;26642;55.766;37.828;2023-06-04T09:27:41;3.10;;;0.73;;
40635;SDS011;26642;55.766;37.828;2023-06-04T09:30:07;2.33;;;0.75;;
40635;SDS011;26642;55.766;37.828;2023-06-04T09:32:34;2.63;;;0.75;;
40635;SDS011;26642;55.766;37.828;2023-06-04T09:37:51;2.55;;;0.93;;
40635;SDS011;26642;55.766;37.828;2023-06-04T09:40:18;4.93;;;0.93;;
40635;SDS011;26642;55.766;37.828;2023-06-04T09:42:45;3.10;;;0.80;;
40635;SDS011;26642;55.766;37.828;2023-06-04T09:45:29;1.00;;;0.80;;
40635;SDS011;26642;55.766;37.828;2023-06-04T09:47:57;1.33;;;0.63;;
40635;SDS011;26642;55.766;37.828;2023-06-04T09:50:31;1.40;;;1.20;;
40635;SDS011;26642;55.766;37.828;2023-06-04T09:52:58;1.13;;;0.80;;
40635;SDS011;26642;55.766;37.828;2023-06-04T09:55:25;1.10;;;0.60;;
40635;SDS011;26642;55.766;37.828;2023-06-04T09:57:52;1.38;;;0.98;;
40635;SDS011;26642;55.766;37.828;2023-06-04T10:00:19;3.30;;;0.60;;
40635;SDS011;26642;55.766;37.828;2023-06-04T10:02:48;2.45;;;0.70;;
40635;SDS011;26642;55.766;37.828;2023-06-04T10:05:14;2.63;;;0.70;;
40635;SDS011;26642;55.766;37.828;2023-06-04T10:07:42;3.22;;;0.70;;
40635;SDS011;26642;55.766;37.828;2023-06-04T10:10:15;0.88;;;0.60;;
40635;SDS011;26642;55.766;37.828;2023-06-04T10:12:45;2.00;;;0.75;;
40635;SDS011;26642;55.766;37.828;2023-06-04T10:15:20;1.67;;;1.00;;
40635;SDS011;26642;55.766;37.828;2023-06-04T10:17:46;2.97;;;1.17;;
40635;SDS011;26642;55.766;37.828;2023-06-04T10:20:13;2.72;;;1.20;;
40635;SDS011;26642;55.766;37.828;2023-06-04T10:22:40;2.15;;;0.90;;
40635;SDS011;26642;55.766;37.828;2023-06-04T10:25:07;2.88;;;0.90;;
40635;SDS011;26642;55.766;37.828;2023-06-04T10:27:35;6.53;;;1.13;;
40635;SDS011;26642;55.766;37.828;2023-06-04T10:30:03;1.50;;;0.80;;
40635;SDS011;26642;55.766;37.828;2023-06-04T10:32:30;2.95;;;0.90;;
40635;SDS011;26642;55.766;37.828;2023-06-04T10:34:56;4.32;;;0.90;;
40635;SDS011;26642;55.766;37.828;2023-06-04T10:37:23;2.05;;;0.90;;
40635;SDS011;26642;55.766;37.828;2023-06-04T10:39:55;3.80;;;1.00;;
40635;SDS011;26642;55.766;37.828;2023-06-04T10:42:22;0.95;;;0.90;;
40635;SDS011;26642;55.766;37.828;2023-06-04T10:44:53;0.95;;;0.70;;
40635;SDS011;26642;55.766;37.828;2023-06-04T10:47:21;1.90;;;0.82;;
40635;SDS011;26642;55.766;37.828;2023-06-04T10:49:51;1.05;;;0.77;;
40635;SDS011;26642;55.766;37.828;2023-06-04T10:52:23;1.42;;;0.90;;
40635;SDS011;26642;55.766;37.828;2023-06-04T10:54:49;0.82;;;0.80;;
40635;SDS011;26642;55.766;37.828;2023-06-04T10:57:18;1.77;;;0.85;;
40635;SDS011;26642;55.766;37.828;2023-06-04T10:59:57;4.30;;;1.00;;
40635;SDS011;26642;55.766;37.828;2023-06-04T11:02:24;3.28;;;0.93;;
40635;SDS011;26642;55.766;37.828;2023-06-04T11:05:03;2.00;;;0.75;;
40635;SDS011;26642;55.766;37.828;2023-06-04T11:07:41;1.40;;;0.90;;
40635;SDS011;26642;55.766;37.828;2023-06-04T11:10:12;1.20;;;0.93;;
40635;SDS011;26642;55.766;37.828;2023-06-04T11:12:45;1.10;;;1.00;;
40635;SDS011;26642;55.766;37.828;2023-06-04T11:15:13;2.45;;;0.95;;
40635;SDS011;26642;55.766;37.828;2023-06-04T11:17:52;1.00;;;0.82;;
40635;SDS011;26642;55.766;37.828;2023-06-04T11:20:21;1.35;;;0.80;;
40635;SDS011;26642;55.766;37.828;2023-06-04T11:22:52;2.20;;;0.88;;
40635;SDS011;26642;55.766;37.828;2023-06-04T11:25:18;0.73;;;0.70;;
40635;SDS011;26642;55.766;37.828;2023-06-04T11:27:45;2.35;;;0.93;;
40635;SDS011;26642;55.766;37.828;2023-06-04T11:30:11;1.25;;;0.77;;
40635;SDS011;26642;55.766;37.828;2023-06-04T11:32:38;1.23;;;0.70;;
40635;SDS011;26642;55.766;37.828;2023-06-04T11:35:04;0.68;;;0.60;;
40635;SDS011;26642;55.766;37.828;2023-06-04T11:37:31;3.53;;;0.98;;
40635;SDS011;26642;55.766;37.828;2023-06-04T11:39:58;3.88;;;0.77;;
40635;SDS011;26642;55.766;37.828;2023-06-04T11:42:29;3.35;;;0.88;;
40635;SDS011;26642;55.766;37.828;2023-06-04T11:44:58;7.85;;;0.93;;
40635;SDS011;26642;55.766;37.828;2023-06-04T11:47:24;2.58;;;0.90;;
40635;SDS011;26642;55.766;37.828;2023-06-04T11:49:54;0.77;;;0.77;;
40635;SDS011;26642;55.766;37.828;2023-06-04T11:52:23;0.70;;;0.60;;
40635;SDS011;26642;55.766;37.828;2023-06-04T11:54:49;0.63;;;0.63;;
40635;SDS011;26642;55.766;37.828;2023-06-04T11:57:15;1.15;;;1.02;;
40635;SDS011;26642;55.766;37.828;2023-06-04T11:59:42;4.05;;;0.90;;
40635;SDS011;26642;55.766;37.828;2023-06-04T12:02:08;0.73;;;0.73;;
40635;SDS011;26642;55.766;37.828;2023-06-04T12:04:34;0.88;;;0.85;;
40635;SDS011;26642;55.766;37.828;2023-06-04T12:07:01;2.35;;;1.35;;
40635;SDS011;26642;55.766;37.828;2023-06-04T12:09:28;1.25;;;1.00;;
40635;SDS011;26642;55.766;37.828;2023-06-04T12:12:07;3.13;;;1.23;;
40635;SDS011;26642;55.766;37.828;2023-06-04T12:14:33;2.35;;;1.08;;
40635;SDS011;26642;55.766;37.828;2023-06-04T12:17:00;2.50;;;1.00;;
40635;SDS011;26642;55.766;37.828;2023-06-04T12:19:44;1.67;;;1.10;;
40635;SDS011;26642;55.766;37.828;2023-06-04T12:22:13;1.35;;;0.98;;
40635;SDS011;26642;55.766;37.828;2023-06-04T12:24:50;1.27;;;0.90;;
40635;SDS011;26642;55.766;37.828;2023-06-04T12:27:18;1.13;;;0.90;;
40635;SDS011;26642;55.766;37.828;2023-06-04T12:29:55;2.20;;;1.17;;
40635;SDS011;26642;55.766;37.828;2023-06-04T12:32:24;2.40;;;1.00;;
40635;SDS011;26642;55.766;37.828;2023-06-04T12:34:51;2.85;;;1.27;;
40635;SDS011;26642;55.766;37.828;2023-06-04T12:37:17;3.60;;;1.17;;
40635;SDS011;26642;55.766;37.828;2023-06-04T12:39:43;2.92;;;1.20;;
40635;SDS011;26642;55.766;37.828;2023-06-04T12:42:10;1.52;;;1.13;;
40635;SDS011;26642;55.766;37.828;2023-06-04T12:44:36;2.05;;;1.20;;
40635;SDS011;26642;55.766;37.828;2023-06-04T12:47:06;2.85;;;1.65;;
40635;SDS011;26642;55.766;37.828;2023-06-04T12:49:32;3.05;;;0.90;;
40635;SDS011;26642;55.766;37.828;2023-06-04T12:51:58;1.33;;;1.13;;
40635;SDS011;26642;55.766;37.828;2023-06-04T12:54:24;0.88;;;0.88;;
40635;SDS011;26642;55.766;37.828;2023-06-04T12:56:52;1.75;;;1.00;;
40635;SDS011;26642;55.766;37.828;2023-06-04T12:59:19;2.80;;;0.90;;
40635;SDS011;26642;55.766;37.828;2023-06-04T13:01:44;0.93;;;0.88;;
40635;SDS011;26642;55.766;37.828;2023-06-04T13:04:10;1.77;;;1.00;;
40635;SDS011;26642;55.766;37.828;2023-06-04T13:06:37;3.00;;;1.10;;
40635;SDS011;26642;55.766;37.828;2023-06-04T13:09:03;1.25;;;1.15;;
40635;SDS011;26642;55.766;37.828;2023-06-04T13:11:37;1.88;;;1.00;;
40635;SDS011;26642;55.766;37.828;2023-06-04T13:14:08;2.00;;;1.17;;
40635;SDS011;26642;55.766;37.828;2023-06-04T13:16:35;1.33;;;0.98;;
40635;SDS011;26642;55.766;37.828;2023-06-04T13:19:01;1.10;;;1.00;;
40635;SDS011;26642;55.766;37.828;2023-06-04T13:21:27;4.75;;;1.40;;
40635;SDS011;26642;55.766;37.828;2023-06-04T13:23:53;3.15;;;1.70;;
40635;SDS011;26642;55.766;37.828;2023-06-04T13:26:21;1.75;;;1.40;;
40635;SDS011;26642;55.766;37.828;2023-06-04T13:28:48;3.33;;;1.70;;
40635;SDS011;26642;55.766;37.828;2023-06-04T13:31:15;2.83;;;1.73;;
40635;SDS011;26642;55.766;37.828;2023-06-04T13:33:41;5.30;;;1.70;;
40635;SDS011;26642;55.766;37.828;2023-06-04T13:36:07;3.47;;;1.30;;
40635;SDS011;26642;55.766;37.828;2023-06-04T13:38:33;2.40;;;1.25;;
40635;SDS011;26642;55.766;37.828;2023-06-04T13:40:59;2.33;;;1.20;;
40635;SDS011;26642;55.766;37.828;2023-06-04T13:43:25;4.07;;;1.33;;
40635;SDS011;26642;55.766;37.828;2023-06-04T13:45:51;2.10;;;1.63;;
40635;SDS011;26642;55.766;37.828;2023-06-04T13:48:18;4.35;;;1.60;;
40635;SDS011;26642;55.766;37.828;2023-06-04T13:50:44;2.83;;;1.23;;
40635;SDS011;26642;55.766;37.828;2023-06-04T13:53:10;3.88;;;1.15;;
40635;SDS011;26642;55.766;37.828;2023-06-04T13:55:38;3.42;;;1.45;;
40635;SDS011;26642;55.766;37.828;2023-06-04T13:58:04;3.53;;;1.30;;
40635;SDS011;26642;55.766;37.828;2023-06-04T14:00:33;1.33;;;1.17;;
40635;SDS011;26642;55.766;37.828;2023-06-04T14:02:59;2.42;;;1.02;;
40635;SDS011;26642;55.766;37.828;2023-06-04T14:05:25;2.75;;;1.20;;
40635;SDS011;26642;55.766;37.828;2023-06-04T14:07:53;2.00;;;1.40;;
40635;SDS011;26642;55.766;37.828;2023-06-04T14:10:19;3.05;;;1.50;;
40635;SDS011;26642;55.766;37.828;2023-06-04T14:12:45;3.33;;;1.45;;
40635;SDS011;26642;55.766;37.828;2023-06-04T14:15:11;2.83;;;1.40;;
40635;SDS011;26642;55.766;37.828;2023-06-04T14:17:38;1.80;;;1.20;;
40635;SDS011;26642;55.766;37.828;2023-06-04T14:20:04;1.35;;;1.20;;
40635;SDS011;26642;55.766;37.828;2023-06-04T14:22:34;2.55;;;1.33;;
40635;SDS011;26642;55.766;37.828;2023-06-04T14:25:07;2.60;;;1.13;;
40635;SDS011;26642;55.766;37.828;2023-06-04T14:27:33;1.60;;;1.20;;
40635;SDS011;26642;55.766;37.828;2023-06-04T14:30:01;2.22;;;1.08;;
40635;SDS011;26642;55.766;37.828;2023-06-04T14:32:31;1.63;;;1.05;;
40635;SDS011;26642;55.766;37.828;2023-06-04T14:34:59;1.40;;;1.27;;
40635;SDS011;26642;55.766;37.828;2023-06-04T14:37:25;1.95;;;1.00;;
40635;SDS011;26642;55.766;37.828;2023-06-04T14:39:51;1.83;;;1.02;;
40635;SDS011;26642;55.766;37.828;2023-06-04T14:42:17;2.42;;;1.27;;
40635;SDS011;26642;55.766;37.828;2023-06-04T14:44:43;1.75;;;1.10;;